Time;durP1;ratioP1;P1;durP2;ratioP2;P2;SDS_P1;SDS_P2;PMS_P1;PMS_P2;Temp;Humidity;BMP_temperature;BMP_pressure;BME280_temperature;BME280_humidity;BME280_pressure;Samples;Min_cycle;Max_cycle;Signal;HPM_P1;HPM_P2
2023/12/18 11:24:58;;;;;;;77.00;26.70;;;;;;;15.78;93.97;101351.77;95704;1292;10276256;-82
2023/12/18 11:27:24;;;;;;;73.00;25.40;;;;;;;15.56;97.98;101349.81;103035;1298;60602;-81
2023/12/18 11:29:50;;;;;;;65.20;23.90;;;;;;;15.19;98.27;101351.02;103219;1292;60309;-81
2023/12/18 11:35:44;;;;;;;59.50;22.60;;;;;;;14.15;100.00;101359.10;103268;1294;74891;-81
2023/12/18 11:38:13;;;;;;;64.40;23.50;;;;;;;14.15;100.00;101361.77;103182;1292;72950;-81
2023/12/18 11:40:47;;;;;;;56.30;22.20;;;;;;;14.29;100.00;101365.62;103167;1292;62365;-80
2023/12/18 11:43:35;;;;;;;68.10;23.20;;;;;;;13.96;100.00;101366.71;103076;1289;60252;-82
2023/12/18 11:49:23;;;;;;;52.50;20.40;;;;;;;13.58;100.00;101363.89;103046;1294;74489;-81
2023/12/18 11:51:49;;;;;;;56.70;22.40;;;;;;;13.88;100.00;101360.49;103232;1292;60837;-81
2023/12/18 11:58:07;;;;;;;59.80;21.80;;;;;;;13.83;100.00;101359.70;103114;1289;615463;-81
2023/12/18 12:00:34;;;;;;;57.60;22.20;;;;;;;13.55;100.00;101355.48;103216;1295;60291;-80
2023/12/18 12:03:04;;;;;;;54.60;20.40;;;;;;;13.66;100.00;101351.21;102800;1289;61142;-80
2023/12/18 12:05:48;;;;;;;55.50;21.40;;;;;;;13.90;100.00;101349.30;102952;1295;599689;-81
2023/12/18 12:08:13;;;;;;;57.40;21.20;;;;;;;14.08;100.00;101348.35;103118;1292;62324;-80
2023/12/18 12:13:58;;;;;;;55.50;21.00;;;;;;;13.97;100.00;101353.21;102829;1290;601130;-79
2023/12/18 12:16:24;;;;;;;57.00;21.20;;;;;;;13.84;100.00;101351.77;103170;1292;60395;-80
2023/12/18 12:18:51;;;;;;;49.20;20.40;;;;;;;14.09;100.00;101352.90;103110;1293;60571;-80
2023/12/18 12:21:17;;;;;;;55.00;21.70;;;;;;;14.34;99.95;101348.56;102984;1292;60761;-79
2023/12/18 12:23:46;;;;;;;52.00;21.10;;;;;;;14.24;99.91;101352.64;102952;1289;60326;-79
2023/12/18 12:26:12;;;;;;;55.70;21.60;;;;;;;13.96;99.71;101349.54;103096;1289;75020;-79
2023/12/18 12:28:41;;;;;;;52.10;20.40;;;;;;;13.88;100.00;101350.11;102896;1286;468563;-79
2023/12/18 12:31:07;;;;;;;52.90;20.80;;;;;;;13.70;100.00;101352.48;103114;1286;60423;-79
2023/12/18 12:33:43;;;;;;;55.50;20.80;;;;;;;13.78;100.00;101353.89;103072;1291;60383;-79
2023/12/18 12:36:10;;;;;;;55.80;22.50;;;;;;;13.96;100.00;101357.13;103196;1288;75232;-79
2023/12/18 12:38:43;;;;;;;55.20;21.50;;;;;;;13.78;100.00;101356.05;103424;1287;60325;-79
2023/12/18 12:41:10;;;;;;;59.80;22.70;;;;;;;13.54;100.00;101355.80;103475;1289;61425;-78
2023/12/18 12:43:52;;;;;;;60.20;22.80;;;;;;;13.95;100.00;101353.81;103344;1285;599869;-80
2023/12/18 12:46:18;;;;;;;53.10;21.20;;;;;;;14.06;99.25;101352.13;103356;1291;60429;-79
2023/12/18 12:48:44;;;;;;;58.10;23.00;;;;;;;14.06;97.34;101353.16;102993;1291;60389;-79
2023/12/18 12:51:09;;;;;;;62.20;23.30;;;;;;;14.08;98.52;101356.73;103310;1289;60370;-78
2023/12/18 12:53:35;;;;;;;65.10;22.20;;;;;;;14.53;95.63;101355.45;103396;1286;60386;-79
2023/12/18 12:56:00;;;;;;;55.30;22.60;;;;;;;14.73;92.60;101353.73;103139;1290;60402;-79
2023/12/18 12:58:33;;;;;;;57.40;22.80;;;;;;;14.98;88.95;101349.25;103129;1287;406785;-79
2023/12/18 13:00:59;;;;;;;62.00;22.90;;;;;;;14.93;89.24;101352.94;103448;1287;74675;-79
2023/12/18 13:03:26;;;;;;;64.10;24.10;;;;;;;15.05;87.81;101358.48;103033;1288;60294;-79
2023/12/18 13:05:51;;;;;;;59.70;23.60;;;;;;;15.13;86.04;101352.62;103415;1285;60458;-78
2023/12/18 13:08:18;;;;;;;58.40;22.90;;;;;;;15.24;86.63;101358.27;103494;1284;60332;-79
2023/12/18 13:14:09;;;;;;;61.40;24.30;;;;;;;14.64;87.60;101365.48;103272;1289;599704;-78
2023/12/18 13:16:35;;;;;;;52.90;22.30;;;;;;;13.54;97.97;101365.33;103344;1292;60454;-78
2023/12/18 13:19:00;;;;;;;57.40;24.30;;;;;;;14.32;94.27;101367.52;103430;1286;60479;-78
2023/12/18 13:21:26;;;;;;;57.90;22.40;;;;;;;13.40;98.74;101370.15;103457;1288;60380;-78
2023/12/18 13:23:51;;;;;;;56.30;23.30;;;;;;;14.33;94.38;101370.23;103493;1286;60499;-79
2023/12/18 13:26:17;;;;;;;61.30;24.20;;;;;;;14.27;92.34;101375.21;103466;1288;60415;-78
2023/12/18 13:28:43;;;;;;;63.50;25.70;;;;;;;14.34;92.18;101375.19;103469;1286;322994;-78
2023/12/18 13:31:08;;;;;;;63.30;24.20;;;;;;;14.09;93.49;101373.61;103952;1282;60343;-78
2023/12/18 13:37:07;;;;;;;64.30;24.80;;;;;;;13.02;100.00;101380.91;102804;1296;600019;-79
2023/12/18 13:39:33;;;;;;;57.30;24.30;;;;;;;12.91;100.00;101386.09;102691;1298;62450;-78
2023/12/18 13:41:59;;;;;;;66.50;26.50;;;;;;;13.35;100.00;101381.21;102916;1298;60432;-79
2023/12/18 13:44:28;;;;;;;66.40;26.10;;;;;;;12.97;100.00;101384.90;102976;1296;60502;-79
2023/12/18 13:46:54;;;;;;;75.00;27.60;;;;;;;13.66;99.90;101386.48;103170;1295;74680;-79
2023/12/18 13:49:21;;;;;;;72.30;26.60;;;;;;;13.93;98.65;101384.70;103139;1295;60172;-79
2023/12/18 13:51:46;;;;;;;78.60;28.30;;;;;;;14.09;97.72;101389.06;103064;1291;312370;-79
2023/12/18 13:57:31;;;;;;;71.70;28.40;;;;;;;13.70;97.81;101386.56;103503;1287;600885;-80
2023/12/18 13:59:56;;;;;;;86.90;28.90;;;;;;;12.74;100.00;101393.94;103410;1289;60381;-79
2023/12/18 14:02:23;;;;;;;76.80;28.60;;;;;;;13.08;100.00;101395.91;103598;1286;60316;-79
2023/12/18 14:04:48;;;;;;;86.90;30.00;;;;;;;12.64;100.00;101394.32;103307;1288;60743;-79
2023/12/18 14:07:14;;;;;;;72.50;28.00;;;;;;;12.86;100.00;101392.33;103197;1286;60408;-80
2023/12/18 14:09:41;;;;;;;72.90;29.70;;;;;;;13.43;100.00;101387.50;103124;1295;60439;-80
2023/12/18 14:12:07;;;;;;;73.00;28.80;;;;;;;13.04;100.00;101396.25;103320;1283;370500;-81
2023/12/18 14:14:32;;;;;;;80.60;28.10;;;;;;;13.25;100.00;101401.10;103463;1288;60475;-82
2023/12/18 14:16:58;;;;;;;75.20;26.80;;;;;;;12.79;100.00;101405.67;103691;1286;60319;-81
2023/12/18 14:22:59;;;;;;;76.00;27.60;;;;;;;12.58;100.00;101402.27;102785;1292;601113;-80
2023/12/18 14:25:24;;;;;;;75.10;27.30;;;;;;;12.36;100.00;101403.83;102916;1294;60407;-80
2023/12/18 14:27:50;;;;;;;75.60;26.70;;;;;;;12.28;100.00;101407.68;103021;1289;60415;-79
2023/12/18 14:30:15;;;;;;;75.60;26.10;;;;;;;12.36;100.00;101406.92;102789;1291;60378;-80
2023/12/18 14:32:41;;;;;;;75.70;26.40;;;;;;;12.50;100.00;101405.67;103090;1291;60401;-79
2023/12/18 14:35:07;;;;;;;84.00;29.00;;;;;;;12.46;100.00;101403.86;102921;1291;60403;-79
2023/12/18 14:37:33;;;;;;;79.10;26.80;;;;;;;12.60;100.00;101406.21;102787;1288;341749;-79
2023/12/18 14:40:02;;;;;;;75.10;26.10;;;;;;;12.76;100.00;101409.00;102996;1293;60405;-79
2023/12/18 14:42:29;;;;;;;72.90;27.10;;;;;;;12.73;100.00;101409.02;103238;1288;74600;-79
2023/12/18 14:48:27;;;;;;;76.20;27.00;;;;;;;13.32;100.00;101410.64;102878;1289;600714;-79
2023/12/18 14:50:52;;;;;;;73.30;26.60;;;;;;;12.85;100.00;101415.77;102999;1294;60365;-80
2023/12/18 14:53:18;;;;;;;70.70;25.50;;;;;;;12.31;100.00;101413.27;103006;1291;60327;-79
2023/12/18 14:55:44;;;;;;;81.10;27.90;;;;;;;12.58;100.00;101413.33;102902;1292;60421;-79
2023/12/18 14:58:09;;;;;;;80.10;27.50;;;;;;;12.98;100.00;101416.97;103090;1291;60393;-79
2023/12/18 15:00:35;;;;;;;82.60;26.40;;;;;;;13.22;100.00;101413.15;103174;1289;60335;-79
2023/12/18 15:03:04;;;;;;;80.60;27.00;;;;;;;13.10;100.00;101419.77;103119;1291;343427;-79
2023/12/18 15:05:29;;;;;;;73.20;27.00;;;;;;;12.35;100.00;101421.61;103382;1286;73750;-79
2023/12/18 15:07:55;;;;;;;74.70;27.10;;;;;;;12.32;100.00;101417.58;103183;1286;60363;-79
2023/12/18 15:10:20;;;;;;;78.80;27.30;;;;;;;12.14;100.00;101423.61;103225;1295;60350;-79
2023/12/18 15:12:46;;;;;;;84.40;25.90;;;;;;;12.21;100.00;101422.88;103273;1286;60452;-79
2023/12/18 15:15:12;;;;;;;78.10;26.90;;;;;;;12.55;100.00;101423.80;103104;1286;60399;-80
2023/12/18 15:17:38;;;;;;;72.70;26.20;;;;;;;12.51;100.00;101421.87;103513;1288;60280;-80
2023/12/18 15:20:04;;;;;;;72.40;25.60;;;;;;;12.41;100.00;101423.95;103310;1285;73271;-80
2023/12/18 15:22:30;;;;;;;76.60;27.00;;;;;;;12.36;100.00;101432.98;102888;1285;60380;-80
2023/12/18 15:24:55;;;;;;;78.60;25.90;;;;;;;12.15;100.00;101436.70;103273;1289;60408;-80
2023/12/18 15:27:21;;;;;;;86.30;25.80;;;;;;;12.28;100.00;101439.95;102918;1285;60560;-79
2023/12/18 15:29:46;;;;;;;76.40;26.40;;;;;;;12.28;100.00;101442.98;103474;1286;60507;-80
2023/12/18 15:32:12;;;;;;;79.90;26.10;;;;;;;12.42;100.00;101444.78;103391;1286;60393;-78
2023/12/18 15:34:38;;;;;;;72.90;25.90;;;;;;;12.66;100.00;101445.69;103304;1291;60471;-79
2023/12/18 15:37:03;;;;;;;91.60;28.00;;;;;;;12.66;100.00;101447.84;103699;1284;60863;-79
2023/12/18 15:39:29;;;;;;;83.80;26.60;;;;;;;12.66;100.00;101451.09;103474;1285;60370;-79
2023/12/18 15:41:55;;;;;;;88.50;26.30;;;;;;;12.61;100.00;101450.36;103347;1285;60477;-79
2023/12/18 15:44:21;;;;;;;88.80;27.70;;;;;;;12.53;100.00;101451.41;103456;1285;60402;-79
2023/12/18 15:46:46;;;;;;;82.60;28.20;;;;;;;12.46;100.00;101451.60;103126;1291;75037;-79
2023/12/18 15:49:15;;;;;;;77.60;27.30;;;;;;;12.52;100.00;101455.61;103245;1285;60392;-79
2023/12/18 15:51:41;;;;;;;79.20;27.20;;;;;;;12.39;100.00;101455.78;103228;1285;73215;-79
2023/12/18 15:54:06;;;;;;;73.00;27.00;;;;;;;12.71;100.00;101457.89;103367;1290;60389;-78
2023/12/18 15:56:32;;;;;;;83.60;27.00;;;;;;;12.74;100.00;101460.59;103478;1285;60409;-78
2023/12/18 15:58:57;;;;;;;82.40;28.10;;;;;;;12.79;100.00;101454.04;103500;1288;60412;-79
2023/12/18 16:01:23;;;;;;;87.70;28.70;;;;;;;12.84;100.00;101453.61;103089;1289;60358;-79
2023/12/18 16:04:27;;;;;;;89.50;28.40;;;;;;;12.93;100.00;101450.58;104377;1288;61248;31
2023/12/18 16:06:53;;;;;;;;;;;;;;;13.06;100.00;101450.33;103072;1292;61528;-79
2023/12/18 16:09:18;;;;;;;87.20;27.40;;;;;;;13.05;100.00;101449.84;102782;1294;60434;-79
2023/12/18 16:11:44;;;;;;;93.90;29.20;;;;;;;13.26;100.00;101450.00;102790;1293;60473;-78
2023/12/18 16:14:09;;;;;;;89.30;29.30;;;;;;;13.21;99.91;101449.73;102450;1295;60483;-79
2023/12/18 16:16:36;;;;;;;96.90;28.70;;;;;;;13.31;99.34;101446.05;102600;1295;60441;-79
2023/12/18 16:19:02;;;;;;;92.40;30.10;;;;;;;13.41;99.85;101446.45;102697;1297;74238;-78
2023/12/18 16:21:30;;;;;;;85.80;29.10;;;;;;;13.43;97.71;101453.26;102542;1293;60566;-79
2023/12/18 16:23:56;;;;;;;94.10;30.30;;;;;;;13.37;97.48;101455.46;102693;1296;73240;-78
2023/12/18 16:26:21;;;;;;;99.10;30.40;;;;;;;13.54;97.29;101453.02;102470;1295;60430;-78
2023/12/18 16:28:47;;;;;;;84.90;29.80;;;;;;;13.60;95.76;101455.17;102656;1297;60594;-78
2023/12/18 16:31:43;;;;;;;99.60;29.80;;;;;;;13.57;94.80;101453.21;102320;1296;603550;-79
2023/12/18 16:34:09;;;;;;;93.10;30.50;;;;;;;13.73;95.17;101454.09;102834;1301;61541;-78
2023/12/18 16:36:35;;;;;;;90.90;28.50;;;;;;;13.73;93.69;101463.52;102634;1298;60479;-78
2023/12/18 16:39:01;;;;;;;93.70;30.40;;;;;;;13.68;92.34;101462.29;102432;1302;60489;-78
2023/12/18 16:41:30;;;;;;;103.90;32.20;;;;;;;13.89;92.69;101460.82;102462;1308;60940;-78
2023/12/18 16:43:57;;;;;;;108.20;32.00;;;;;;;13.92;91.50;101456.44;102141;1299;342544;-78
2023/12/18 16:46:24;;;;;;;95.20;31.60;;;;;;;13.83;91.15;101459.46;102749;1295;61220;-78
2023/12/18 16:48:49;;;;;;;101.20;32.10;;;;;;;13.82;93.18;101460.83;102931;1295;61128;-78
2023/12/18 16:51:16;;;;;;;97.10;31.60;;;;;;;13.75;93.02;101458.70;102400;1293;60427;-78
2023/12/18 16:53:41;;;;;;;109.30;33.10;;;;;;;13.84;92.66;101457.52;102797;1295;60472;-78
2023/12/18 16:56:10;;;;;;;107.50;35.00;;;;;;;13.14;95.00;101460.73;102894;1292;60466;-78
2023/12/18 16:58:35;;;;;;;96.10;32.10;;;;;;;12.62;100.00;101461.97;102975;1295;60350;-78
2023/12/18 17:01:01;;;;;;;112.20;33.70;;;;;;;12.56;100.00;101462.38;102852;1291;60581;-78
2023/12/18 17:03:27;;;;;;;103.00;33.50;;;;;;;12.26;100.00;101458.89;102823;1290;61062;-78
2023/12/18 17:06:00;;;;;;;123.40;34.90;;;;;;;12.54;100.00;101455.48;102722;1294;60409;-78
2023/12/18 17:08:26;;;;;;;98.20;34.50;;;;;;;12.78;100.00;101456.46;102832;1295;72996;-77
2023/12/18 17:14:06;;;;;;;;;;;;;;;;;;;;;
2023/12/18 17:20:17;;;;;;;123.50;36.00;;;;;;;12.72;100.00;101464.25;102704;1293;600742;-78
2023/12/18 17:22:44;;;;;;;124.40;35.40;;;;;;;12.73;100.00;101472.20;102824;1296;60431;-78
2023/12/18 17:25:31;;;;;;;116.40;34.90;;;;;;;12.60;100.00;101469.02;103059;1291;61064;-78
2023/12/18 17:31:29;;;;;;;126.40;36.80;;;;;;;12.22;100.00;101470.31;102744;1295;74891;-78
2023/12/18 17:33:59;;;;;;;143.00;37.80;;;;;;;12.20;100.00;101471.52;95535;1288;10330230;-78
2023/12/18 17:36:25;;;;;;;115.80;35.80;;;;;;;12.28;100.00;101474.81;102970;1296;61660;-78
2023/12/18 17:39:08;;;;;;;113.90;35.40;;;;;;;12.15;100.00;101476.86;103088;1293;60370;-78
2023/12/18 17:41:36;;;;;;;123.10;35.90;;;;;;;12.21;100.00;101479.36;103031;1288;74335;-78
2023/12/18 17:44:04;;;;;;;113.10;35.20;;;;;;;12.21;100.00;101481.59;102730;1296;73562;-78
2023/12/18 17:46:30;;;;;;;124.00;37.50;;;;;;;12.21;100.00;101484.99;102880;1295;60534;-78
2023/12/18 17:48:55;;;;;;;107.70;34.80;;;;;;;12.04;100.00;101489.18;102595;1293;60597;-77
2023/12/18 17:51:25;;;;;;;118.00;36.60;;;;;;;11.93;100.00;101488.52;102577;1294;60647;-77
2023/12/18 17:53:51;;;;;;;111.00;34.60;;;;;;;11.83;100.00;101486.95;102782;1296;74545;-78
2023/12/18 18:14:07;;;;;;;125.70;35.30;;;;;;;11.97;100.00;101494.91;103376;1282;613742;-78
2023/12/18 18:16:33;;;;;;;127.60;33.90;;;;;;;12.01;100.00;101499.23;103462;1285;141800;-79
2023/12/18 18:19:05;;;;;;;117.80;33.90;;;;;;;11.94;100.00;101500.16;103947;1282;60295;-78
2023/12/18 18:21:30;;;;;;;111.10;33.10;;;;;;;11.76;100.00;101499.69;103481;1282;72555;-78
2023/12/18 18:23:57;;;;;;;105.00;31.10;;;;;;;11.72;100.00;101500.58;103329;1282;60327;-78
2023/12/18 18:26:25;;;;;;;131.60;35.00;;;;;;;11.77;100.00;101497.92;103576;1286;60447;-78
2023/12/18 18:29:08;;;;;;;106.30;32.30;;;;;;;11.66;100.00;101496.92;107017;1281;62036;-79
2023/12/18 18:31:34;;;;;;;101.20;30.60;;;;;;;11.68;100.00;101494.15;107075;1281;61113;-78
2023/12/18 18:34:01;;;;;;;96.70;30.30;;;;;;;11.50;100.00;101493.66;106761;1282;58292;-78
2023/12/18 18:36:30;;;;;;;94.10;29.60;;;;;;;11.69;100.00;101495.14;107195;1281;58257;-79
2023/12/18 18:38:59;;;;;;;103.30;29.10;;;;;;;11.97;100.00;101491.77;107054;1281;73718;-79
2023/12/18 18:41:25;;;;;;;105.10;29.70;;;;;;;12.26;100.00;101491.97;107132;1281;61015;-79
2023/12/18 18:43:55;;;;;;;103.30;28.70;;;;;;;12.24;100.00;101491.27;107178;1281;58081;-79
2023/12/18 18:46:24;;;;;;;83.20;24.60;;;;;;;12.12;100.00;101488.75;107023;1281;73599;-80
2023/12/18 18:48:49;;;;;;;101.10;28.40;;;;;;;12.09;100.00;101488.98;107107;1281;73242;-79
2023/12/18 18:51:15;;;;;;;79.00;26.10;;;;;;;12.12;100.00;101489.13;106920;1281;58233;-79
2023/12/18 18:53:41;;;;;;;101.30;28.60;;;;;;;12.27;100.00;101495.77;107142;1281;58144;-78
2023/12/18 18:56:07;;;;;;;98.60;28.10;;;;;;;12.33;100.00;101495.20;107147;1281;58124;-78
2023/12/18 18:58:37;;;;;;;97.30;28.70;;;;;;;12.37;100.00;101497.54;107141;1281;58124;-79
2023/12/18 19:01:06;;;;;;;78.00;24.30;;;;;;;12.14;100.00;101495.81;106762;1284;73487;-78
2023/12/18 19:03:31;;;;;;;83.00;26.00;;;;;;;12.13;100.00;101492.44;106317;1287;73636;-79
2023/12/18 19:05:57;;;;;;;99.60;27.80;;;;;;;12.25;100.00;101495.91;106602;1287;58647;-78
2023/12/18 19:08:23;;;;;;;96.00;28.30;;;;;;;12.19;100.00;101493.88;106579;1286;58172;-78
2023/12/18 19:10:48;;;;;;;101.10;28.40;;;;;;;12.11;100.00;101495.81;106602;1286;58207;-77
2023/12/18 19:13:17;;;;;;;99.30;26.50;;;;;;;12.01;100.00;101496.98;106665;1287;58712;-78
2023/12/18 19:15:43;;;;;;;103.80;27.40;;;;;;;12.08;100.00;101492.59;106210;1287;59079;-79
2023/12/18 19:18:09;;;;;;;91.30;25.80;;;;;;;12.11;100.00;101486.70;106474;1288;58184;-77
2023/12/18 19:20:35;;;;;;;100.40;27.60;;;;;;;12.19;100.00;101487.95;106532;1287;58044;-78
2023/12/18 19:23:06;;;;;;;91.30;26.80;;;;;;;12.01;100.00;101488.26;106540;1287;58190;-77
2023/12/18 19:25:35;;;;;;;96.70;27.20;;;;;;;11.86;100.00;101495.38;106209;1287;74892;-79
2023/12/18 19:28:00;;;;;;;108.60;28.30;;;;;;;11.97;100.00;101494.86;106579;1287;72574;-78
2023/12/18 19:30:26;;;;;;;103.40;27.40;;;;;;;12.11;100.00;101495.39;106560;1287;58394;-78
2023/12/18 19:32:51;;;;;;;100.80;27.90;;;;;;;12.15;100.00;101495.39;106402;1286;58458;-79
2023/12/18 19:35:17;;;;;;;94.10;28.10;;;;;;;12.17;100.00;101494.45;106699;1285;58218;-78
2023/12/18 19:37:43;;;;;;;111.70;27.60;;;;;;;12.32;100.00;101500.82;106675;1286;58196;-78
2023/12/18 19:40:13;;;;;;;112.10;29.10;;;;;;;12.34;100.00;101500.73;106585;1286;60568;-79
2023/12/18 19:42:38;;;;;;;106.60;29.10;;;;;;;12.27;100.00;101502.65;106966;1285;61283;-78
2023/12/18 19:45:04;;;;;;;95.30;27.90;;;;;;;12.13;100.00;101498.00;106819;1283;58203;-79
2023/12/18 19:47:38;;;;;;;121.10;29.50;;;;;;;12.19;100.00;101501.56;106945;1285;58226;-78
2023/12/18 19:50:04;;;;;;;115.30;30.40;;;;;;;12.39;100.00;101507.94;106647;1286;72973;-78
2023/12/18 19:52:33;;;;;;;112.50;29.70;;;;;;;12.26;100.00;101511.66;106709;1286;58234;-78
2023/12/18 19:55:01;;;;;;;101.60;27.20;;;;;;;12.31;100.00;101511.46;106412;1289;60191;-78
2023/12/18 19:57:35;;;;;;;105.40;29.00;;;;;;;12.31;100.00;101512.86;106692;1286;72940;-79
2023/12/18 20:00:08;;;;;;;109.60;29.20;;;;;;;12.56;99.74;101509.90;106365;1286;74337;-78
2023/12/18 20:02:34;;;;;;;102.80;28.20;;;;;;;12.65;100.00;101510.02;106498;1286;72539;-79
2023/12/18 20:05:00;;;;;;;96.40;28.60;;;;;;;12.29;100.00;101507.75;106520;1286;58194;-79
2023/12/18 20:07:28;;;;;;;119.20;29.10;;;;;;;12.44;100.00;101509.63;106441;1286;58564;-79
2023/12/18 20:09:53;;;;;;;104.00;29.70;;;;;;;12.34;100.00;101512.04;106503;1286;73090;-79
2023/12/18 20:12:19;;;;;;;106.10;30.40;;;;;;;12.29;99.89;101521.27;106658;1286;58400;-79
2023/12/18 20:14:48;;;;;;;109.20;29.50;;;;;;;12.27;99.87;101518.97;106278;1287;58652;-79
2023/12/18 20:17:23;;;;;;;;;;;;;;;;;;;;;
2023/12/18 20:19:55;;;;;;;107.90;30.10;;;;;;;11.48;100.00;101518.52;106116;1287;58957;-79
2023/12/18 20:22:24;;;;;;;114.20;31.40;;;;;;;11.34;100.00;101520.48;106665;1285;71930;-79
2023/12/18 20:24:53;;;;;;;123.20;32.80;;;;;;;11.41;100.00;101521.75;106722;1285;74406;-78
2023/12/18 20:27:19;;;;;;;129.10;34.40;;;;;;;11.51;100.00;101522.58;106439;1288;72453;-80
2023/12/18 20:29:44;;;;;;;126.80;33.50;;;;;;;11.81;100.00;101525.48;106327;1288;58233;-78
2023/12/18 20:32:11;;;;;;;127.00;36.50;;;;;;;11.58;100.00;101527.13;106431;1288;58194;-79
2023/12/18 20:34:36;;;;;;;130.20;35.20;;;;;;;11.52;100.00;101530.94;106348;1288;58213;-78
2023/12/18 20:37:02;;;;;;;130.40;34.40;;;;;;;11.25;100.00;101527.89;106196;1288;58490;-78
2023/12/18 20:39:28;;;;;;;132.20;36.20;;;;;;;11.27;100.00;101525.05;106428;1288;58455;-78
2023/12/18 20:41:55;;;;;;;153.10;37.70;;;;;;;11.42;100.00;101527.94;106388;1288;60822;-78
2023/12/18 20:44:20;;;;;;;140.20;37.40;;;;;;;11.33;100.00;101525.98;106406;1288;72821;-78
2023/12/18 20:46:46;;;;;;;145.80;36.00;;;;;;;11.29;100.00;101527.27;106642;1285;58328;-79
2023/12/18 20:49:11;;;;;;;138.20;34.90;;;;;;;11.35;100.00;101531.46;106656;1286;58122;-78
2023/12/18 20:51:40;;;;;;;163.60;35.60;;;;;;;11.49;100.00;101540.41;106738;1285;58247;-78
2023/12/18 20:54:06;;;;;;;153.80;36.90;;;;;;;11.53;100.00;101547.71;106451;1286;58491;-78
2023/12/18 20:56:31;;;;;;;142.70;33.20;;;;;;;11.45;100.00;101554.65;106848;1285;58271;-78
2023/12/18 20:58:57;;;;;;;148.30;35.20;;;;;;;11.33;100.00;101553.55;106975;1285;58117;-79
2023/12/18 21:01:22;;;;;;;141.40;32.80;;;;;;;11.30;100.00;101554.73;106784;1281;58202;-79
2023/12/18 21:03:48;;;;;;;145.60;34.10;;;;;;;11.35;100.00;101554.84;107214;1281;58114;-78
2023/12/18 21:06:13;;;;;;;136.90;35.00;;;;;;;11.19;100.00;101548.86;107080;1281;58071;-78
2023/12/18 21:08:39;;;;;;;139.70;33.00;;;;;;;11.03;100.00;101551.36;107131;1282;58204;-78
2023/12/18 21:11:07;;;;;;;151.60;34.20;;;;;;;10.98;100.00;101547.33;107114;1281;58252;-79
2023/12/18 21:13:33;;;;;;;134.70;34.80;;;;;;;10.96;100.00;101547.77;107010;1282;58053;-78
2023/12/18 21:15:58;;;;;;;155.70;33.60;;;;;;;11.12;100.00;101547.64;106902;1281;58137;-78
2023/12/18 21:18:24;;;;;;;155.50;36.20;;;;;;;11.19;100.00;101546.21;107020;1282;58262;-79
2023/12/18 21:20:49;;;;;;;169.90;37.20;;;;;;;11.21;100.00;101544.86;107161;1281;58026;-78
2023/12/18 21:23:15;;;;;;;137.60;31.80;;;;;;;11.14;100.00;101542.17;107036;1282;58232;-77
2023/12/18 21:25:41;;;;;;;170.50;37.20;;;;;;;11.47;100.00;101544.16;107120;1281;58160;-78
2023/12/18 21:28:07;;;;;;;166.30;38.40;;;;;;;11.40;99.94;101542.23;106918;1282;58179;-77
2023/12/18 21:30:34;;;;;;;167.20;35.50;;;;;;;11.04;100.00;101540.68;107023;1281;58272;-77
2023/12/18 21:32:59;;;;;;;185.40;37.80;;;;;;;11.25;100.00;101542.23;107127;1282;58104;-77
2023/12/18 21:35:25;;;;;;;172.70;35.80;;;;;;;11.51;100.00;101545.73;107143;1281;58258;-79
2023/12/18 21:37:51;;;;;;;174.60;35.60;;;;;;;11.24;100.00;101546.36;106688;1286;58211;-79
2023/12/18 21:40:17;;;;;;;173.80;36.60;;;;;;;11.12;100.00;101543.93;106647;1285;58370;-78
2023/12/18 21:42:45;;;;;;;172.50;36.50;;;;;;;11.25;100.00;101549.95;106713;1286;58191;-77
2023/12/18 21:45:10;;;;;;;170.20;37.80;;;;;;;11.63;100.00;101551.63;106608;1287;61913;-79
2023/12/18 21:47:39;;;;;;;160.40;35.50;;;;;;;11.56;99.94;101557.47;106655;1286;58215;-78
2023/12/18 21:50:05;;;;;;;191.80;36.40;;;;;;;11.74;100.00;101560.93;106680;1286;72856;-79
2023/12/18 21:52:31;;;;;;;173.30;35.70;;;;;;;11.95;97.96;101560.46;106695;1286;74503;-77
2023/12/18 21:54:56;;;;;;;180.60;38.50;;;;;;;12.01;96.10;101553.59;106642;1286;58215;-78
2023/12/18 21:57:22;;;;;;;191.00;36.70;;;;;;;12.00;96.29;101559.48;106632;1286;58161;-79
2023/12/18 21:59:47;;;;;;;151.60;35.70;;;;;;;12.14;95.50;101559.75;106696;1285;58205;-78
2023/12/18 22:02:13;;;;;;;159.60;37.30;;;;;;;12.18;95.65;101562.44;106775;1285;58275;-78
2023/12/18 22:04:38;;;;;;;152.30;34.70;;;;;;;12.06;95.62;101562.35;106468;1286;73403;-78
2023/12/18 22:07:04;;;;;;;174.30;37.90;;;;;;;11.93;97.54;101564.23;106406;1286;58175;-78
2023/12/18 22:09:30;;;;;;;153.90;35.70;;;;;;;12.02;95.42;101566.69;106997;1281;58439;-78
2023/12/18 22:11:56;;;;;;;158.70;34.70;;;;;;;11.97;94.49;101567.64;107014;1281;58188;-78
2023/12/18 22:14:21;;;;;;;156.10;35.40;;;;;;;11.59;98.80;101570.79;107143;1282;58173;-79
2023/12/18 22:16:47;;;;;;;180.00;37.30;;;;;;;11.51;99.62;101568.90;107070;1282;58253;-78
2023/12/18 22:19:12;;;;;;;182.20;37.30;;;;;;;11.69;99.25;101569.87;106538;1283;58313;-78
2023/12/18 22:21:41;;;;;;;171.10;36.70;;;;;;;12.17;95.60;101569.62;106912;1284;58380;-79
2023/12/18 22:24:07;;;;;;;151.40;35.70;;;;;;;12.04;98.67;101571.61;106555;1285;74531;-78
2023/12/18 22:26:33;;;;;;;184.70;37.30;;;;;;;12.23;95.79;101570.85;106710;1284;59230;-78
2023/12/18 22:28:58;;;;;;;176.90;36.00;;;;;;;12.02;97.93;101572.71;106836;1283;58676;-79
2023/12/18 22:31:24;;;;;;;186.00;37.70;;;;;;;12.24;95.38;101572.16;106776;1283;58222;-78
2023/12/18 22:33:50;;;;;;;154.10;36.50;;;;;;;11.95;97.07;101574.85;106854;1284;58262;-78
2023/12/18 22:36:15;;;;;;;160.60;36.60;;;;;;;11.69;98.48;101578.34;106737;1285;58582;-77
2023/12/18 22:38:41;;;;;;;146.10;34.60;;;;;;;11.78;98.38;101580.73;106885;1285;58370;-79
2023/12/18 22:41:07;;;;;;;167.90;36.50;;;;;;;12.06;94.73;101580.73;106833;1283;58263;-78
2023/12/18 22:43:32;;;;;;;168.00;36.50;;;;;;;12.25;94.63;101578.02;106894;1284;58473;-78
2023/12/18 22:45:58;;;;;;;157.70;36.70;;;;;;;12.08;95.12;101579.24;106866;1283;58739;-79
2023/12/18 22:48:23;;;;;;;155.60;34.50;;;;;;;12.34;93.11;101578.21;106832;1283;58392;-79
2023/12/18 22:50:49;;;;;;;175.90;36.90;;;;;;;12.27;93.00;101582.81;106818;1281;58306;-78
2023/12/18 22:53:15;;;;;;;170.10;35.80;;;;;;;12.27;92.51;101583.40;107126;1281;74914;-78
2023/12/18 22:55:41;;;;;;;152.20;35.70;;;;;;;12.49;91.25;101586.50;107160;1281;73535;-79
2023/12/18 22:58:08;;;;;;;177.90;37.40;;;;;;;12.43;90.35;101587.80;107148;1282;58189;-79
2023/12/18 23:00:34;;;;;;;179.30;37.10;;;;;;;12.48;90.29;101593.07;107103;1281;58227;-78
2023/12/18 23:02:59;;;;;;;168.90;38.30;;;;;;;12.44;89.97;101593.08;107005;1281;58284;-79
2023/12/18 23:05:25;;;;;;;155.10;35.30;;;;;;;12.50;89.91;101595.96;107154;1281;58268;-79
2023/12/18 23:07:52;;;;;;;173.20;36.90;;;;;;;12.48;91.06;101598.48;107147;1281;58281;-78
2023/12/18 23:10:17;;;;;;;187.70;37.90;;;;;;;12.52;91.36;101600.16;107125;1282;58236;-79
2023/12/18 23:12:43;;;;;;;154.30;34.20;;;;;;;12.62;91.51;101598.48;107159;1282;58681;-78
2023/12/18 23:15:08;;;;;;;179.60;37.20;;;;;;;12.68;91.37;101598.00;106787;1281;74748;-79
2023/12/18 23:17:35;;;;;;;173.70;36.40;;;;;;;12.57;89.64;101597.48;107142;1281;58274;-78